createdAt,value
2017-04-19T00:00:23.590Z,70.65
2017-04-19T00:01:23.623Z,70.47
2017-04-19T00:02:23.653Z,70.18
2017-04-19T00:03:23.687Z,70.37
2017-04-19T00:04:23.721Z,70.37
2017-04-19T00:05:23.755Z,70.09
2017-04-19T00:06:23.780Z,70.47
2017-04-19T00:07:23.822Z,70.47
2017-04-19T00:08:23.844Z,70.47
2017-04-19T00:09:23.878Z,70.28
2017-04-19T00:10:23.906Z,70.37
2017-04-19T00:11:23.940Z,70.37
2017-04-19T00:12:23.970Z,70.28
2017-04-19T00:13:24.004Z,70.65
2017-04-19T00:14:24.038Z,70.37
2017-04-19T00:15:24.074Z,70.28
2017-04-19T00:16:24.103Z,70.75
2017-04-19T00:17:24.433Z,70.65
2017-04-19T00:18:24.165Z,71.32
2017-04-19T00:19:24.193Z,71.13
2017-04-19T00:20:24.224Z,71.32
2017-04-19T00:21:24.254Z,70.84
2017-04-19T00:22:24.590Z,70.94
2017-04-19T00:23:24.321Z,70.56
2017-04-19T00:24:24.351Z,70.56
2017-04-19T00:25:24.423Z,70.65
2017-04-19T00:26:24.413Z,70.56
2017-04-19T00:27:24.444Z,70.47
2017-04-19T00:28:24.477Z,70.65
2017-04-19T00:29:24.510Z,70.75
2017-04-19T00:30:24.539Z,70.65
2017-04-19T00:31:24.573Z,70.47
2017-04-19T00:32:24.605Z,70.37
2017-04-19T00:33:24.634Z,70.65
2017-04-19T00:34:24.666Z,70.56
2017-04-19T00:35:24.699Z,71.13
2017-04-19T00:36:24.734Z,71.13
2017-04-19T00:37:24.762Z,70.37
2017-04-19T00:38:24.797Z,69.99
2017-04-19T00:39:24.828Z,70.43
2017-04-19T00:40:25.018Z,70.34
2017-04-19T00:41:24.891Z,70.34
2017-04-19T00:42:24.923Z,70.53
2017-04-19T00:43:25.255Z,71.19
2017-04-19T00:44:24.986Z,71.19
2017-04-19T00:45:25.324Z,70.62
2017-04-19T00:46:25.045Z,70.72
2017-04-19T00:47:25.080Z,70.53
2017-04-19T00:48:25.111Z,70.43
2017-04-19T00:49:25.144Z,70.53
2017-04-19T00:50:25.173Z,70.15
2017-04-19T00:51:25.202Z,70.43
2017-04-19T00:52:25.238Z,70.43
2017-04-19T00:53:25.268Z,71.19
2017-04-19T00:54:25.332Z,70.81
2017-04-19T00:55:25.327Z,71.19
2017-04-19T00:56:25.360Z,70.81
2017-04-19T00:57:25.397Z,71.19
2017-04-19T00:58:25.422Z,71.09
2017-04-19T00:59:25.648Z,71.09
2017-04-19T01:00:25.485Z,70.72
2017-04-19T01:01:25.677Z,70.72
2017-04-19T01:02:25.548Z,70.72
2017-04-19T01:03:25.583Z,70.62
2017-04-19T01:04:25.612Z,71.28
2017-04-19T01:05:25.641Z,71.38
2017-04-19T01:06:25.673Z,71.28
2017-04-19T01:07:25.741Z,70.53
2017-04-19T01:08:25.735Z,71.19
2017-04-19T01:09:25.768Z,71.09
2017-04-19T01:10:25.799Z,71.38
2017-04-19T01:11:25.829Z,71.19
2017-04-19T01:12:25.865Z,71.09
2017-04-19T01:13:25.893Z,71.47
2017-04-19T01:14:25.927Z,71.09
2017-04-19T01:15:25.962Z,71.47
2017-04-19T01:16:25.984Z,71.57
2017-04-19T01:17:26.021Z,71.62
2017-04-19T01:18:26.047Z,71.47
2017-04-19T01:19:26.076Z,71.62
2017-04-19T01:20:26.116Z,71.53
2017-04-19T01:21:26.139Z,71.62
2017-04-19T01:22:26.173Z,71.72
2017-04-19T01:23:26.201Z,71.53
2017-04-19T01:24:26.234Z,71.62
2017-04-19T01:25:26.272Z,71.81
2017-04-19T01:26:26.294Z,71.44
2017-04-19T01:27:26.345Z,71.53
2017-04-19T01:28:26.403Z,71.44
2017-04-19T01:29:26.389Z,71.72
2017-04-19T01:30:26.416Z,71.62
2017-04-19T01:31:26.751Z,71.53
2017-04-19T01:32:26.481Z,71.62
2017-04-19T01:33:26.511Z,71.62
2017-04-19T01:34:26.541Z,71.34
2017-04-19T01:35:26.571Z,71.62
2017-04-19T01:36:26.604Z,71.72
2017-04-19T01:37:26.632Z,72.1
2017-04-19T01:38:26.666Z,72.29
2017-04-19T01:39:26.694Z,72.1
2017-04-19T01:40:26.724Z,72
2017-04-19T01:41:26.754Z,72.1
2017-04-19T01:42:26.784Z,72.29
2017-04-19T01:43:26.821Z,72.19
2017-04-19T01:44:26.848Z,72.19
2017-04-19T01:45:26.878Z,72.38
2017-04-19T01:46:26.907Z,72.29
2017-04-19T01:47:26.940Z,71.81
2017-04-19T01:48:27.272Z,72.38
2017-04-19T01:49:27.006Z,72.1
2017-04-19T01:50:27.032Z,72.77
2017-04-19T01:51:27.063Z,72.19
2017-04-19T01:52:27.093Z,72.67
2017-04-19T01:53:27.133Z,72.67
2017-04-19T01:54:27.169Z,72.38
2017-04-19T01:55:27.188Z,72.86
2017-04-19T01:56:27.217Z,72.67
2017-04-19T01:57:27.244Z,72.96
2017-04-19T01:58:27.274Z,72.67
2017-04-19T01:59:27.307Z,72.96
2017-04-19T02:00:27.339Z,72.96
2017-04-19T02:01:27.369Z,72.77
2017-04-19T02:02:27.396Z,72.77
2017-04-19T02:03:27.427Z,72.38
2017-04-19T02:04:27.763Z,72.96
2017-04-19T02:05:27.491Z,72.77
2017-04-19T02:06:27.521Z,73.05
2017-04-19T02:07:27.550Z,72.86
2017-04-19T02:08:27.581Z,72.67
2017-04-19T02:09:27.611Z,72.77
2017-04-19T02:10:27.656Z,72.77
2017-04-19T02:11:27.681Z,72.77
2017-04-19T02:12:27.706Z,72.67
2017-04-19T02:13:27.737Z,73.14
2017-04-19T02:14:27.782Z,72.86
2017-04-19T02:15:27.799Z,72.57
2017-04-19T02:16:27.828Z,72.67
2017-04-19T02:17:27.861Z,72.77
2017-04-19T02:18:27.892Z,72.67
2017-04-19T02:19:27.919Z,72.86
2017-04-19T02:20:27.951Z,72.86
2017-04-19T02:21:27.994Z,72.96
2017-04-19T02:22:28.012Z,72.96
2017-04-19T02:23:28.351Z,72.67
2017-04-19T02:24:28.379Z,72.38
2017-04-19T02:25:28.107Z,72.96
2017-04-19T02:26:28.134Z,72.86
2017-04-19T02:27:28.167Z,72.38
2017-04-19T02:28:28.196Z,72.57
2017-04-19T02:29:28.229Z,72.57
2017-04-19T02:30:28.262Z,72.38
2017-04-19T02:31:28.606Z,72.57
2017-04-19T02:32:28.322Z,72.57
2017-04-19T02:33:28.351Z,72.77
2017-04-19T02:34:28.385Z,72.57
2017-04-19T02:35:28.412Z,72.77
2017-04-19T02:36:28.444Z,72
2017-04-19T02:37:28.473Z,72.48
2017-04-19T02:38:28.507Z,72.1
2017-04-19T02:39:28.538Z,72.19
2017-04-19T02:40:28.583Z,72.67
2017-04-19T02:41:28.598Z,72.29
2017-04-19T02:42:28.627Z,72.57
2017-04-19T02:43:28.657Z,72
2017-04-19T02:44:28.686Z,72.1
2017-04-19T02:45:28.720Z,72.1
2017-04-19T02:46:28.751Z,72.1
2017-04-19T02:47:29.083Z,72.29
2017-04-19T02:48:28.812Z,72.57
2017-04-19T02:49:28.853Z,72.1
2017-04-19T02:50:28.877Z,72.57
2017-04-19T02:51:28.903Z,72.48
2017-04-19T02:52:28.935Z,72.77
2017-04-19T02:53:28.967Z,72.67
2017-04-19T02:54:28.995Z,72.67
2017-04-19T02:55:29.023Z,72.48
2017-04-19T02:56:29.061Z,72.67
2017-04-19T02:57:29.087Z,72.48
2017-04-19T02:58:29.119Z,72.48
2017-04-19T02:59:29.149Z,72.48
2017-04-19T03:00:29.179Z,72.38
2017-04-19T03:01:29.209Z,72.48
2017-04-19T03:02:29.240Z,72.57
2017-04-19T03:03:29.596Z,72.38
2017-04-19T03:04:29.605Z,72.57
2017-04-19T03:05:29.332Z,72.67
2017-04-19T03:06:29.361Z,72.57
2017-04-19T03:07:29.397Z,72.48
2017-04-19T03:08:29.436Z,72.57
2017-04-19T03:09:29.456Z,72.38
2017-04-19T03:10:29.486Z,72.48
2017-04-19T03:11:29.519Z,72.77
2017-04-19T03:12:29.547Z,72.38
2017-04-19T03:13:29.580Z,72.77
2017-04-19T03:14:29.609Z,72.38
2017-04-19T03:15:29.639Z,72.48
2017-04-19T03:16:29.971Z,72.67
2017-04-19T03:17:29.704Z,72.57
2017-04-19T03:18:29.729Z,72.57
2017-04-19T03:19:29.764Z,72.67
2017-04-19T03:20:29.804Z,72.48
2017-04-19T03:21:29.824Z,71.91
2017-04-19T03:22:29.855Z,72.67
2017-04-19T03:23:29.886Z,72.67
2017-04-19T03:24:29.946Z,72.67
2017-04-19T03:25:29.950Z,72.67
2017-04-19T03:26:29.980Z,72.67
2017-04-19T03:27:30.007Z,72.67
2017-04-19T03:28:30.041Z,72.38
2017-04-19T03:29:30.071Z,72.77
2017-04-19T03:30:30.102Z,72.38
2017-04-19T03:31:30.138Z,72.38
2017-04-19T03:32:30.162Z,72.29
2017-04-19T03:33:30.193Z,72.67
2017-04-19T03:34:30.224Z,72.48
2017-04-19T03:35:30.264Z,72.29
2017-04-19T03:36:30.283Z,72.19
2017-04-19T03:37:30.618Z,72.57
2017-04-19T03:38:30.345Z,72.77
2017-04-19T03:39:30.374Z,72.38
2017-04-19T03:40:30.408Z,72.29
2017-04-19T03:41:30.438Z,72.19
2017-04-19T03:42:30.465Z,72.29
2017-04-19T03:43:30.502Z,72.29
2017-04-19T03:44:30.545Z,72.38
2017-04-19T03:45:30.564Z,72.19
2017-04-19T03:46:30.590Z,72.19
2017-04-19T03:47:30.874Z,72.1
2017-04-19T03:48:30.652Z,71.72
2017-04-19T03:49:30.681Z,71.5
2017-04-19T03:50:30.710Z,71.81
2017-04-19T03:51:30.742Z,71.78
2017-04-19T03:52:30.774Z,71.59
2017-04-19T03:53:30.802Z,71.78
2017-04-19T03:54:30.852Z,71.78
2017-04-19T03:55:30.866Z,71.78
2017-04-19T03:56:30.896Z,71.21
2017-04-19T03:57:30.930Z,71.5
2017-04-19T03:58:30.957Z,71.59
2017-04-19T03:59:30.986Z,71.59
2017-04-19T04:00:31.018Z,71.12
2017-04-19T04:01:31.046Z,71.31
2017-04-19T04:02:31.077Z,71.59
2017-04-19T04:03:31.110Z,71.02
2017-04-19T04:04:31.141Z,71.21
2017-04-19T04:05:31.167Z,71.12
2017-04-19T04:06:31.199Z,71.21
2017-04-19T04:07:31.229Z,70.83
2017-04-19T04:08:31.261Z,70.83
2017-04-19T04:09:31.294Z,70.55
2017-04-19T04:10:31.322Z,70.64
2017-04-19T04:11:31.351Z,70.83
2017-04-19T04:12:31.383Z,70.74
2017-04-19T04:13:31.413Z,71.12
2017-04-19T04:14:31.689Z,70.74
2017-04-19T04:15:31.471Z,70.55
2017-04-19T04:16:31.804Z,70.64
2017-04-19T04:17:31.532Z,71.21
2017-04-19T04:18:31.561Z,70.83
2017-04-19T04:19:31.591Z,70.64
2017-04-19T04:20:31.623Z,70.74
2017-04-19T04:21:31.652Z,70.55
2017-04-19T04:22:31.686Z,70.83
2017-04-19T04:23:31.811Z,70.83
2017-04-19T04:24:31.741Z,70.55
2017-04-19T04:25:31.775Z,70.55
2017-04-19T04:26:31.803Z,71.21
2017-04-19T04:27:31.835Z,70.64
2017-04-19T04:28:32.166Z,70.64
2017-04-19T04:29:31.892Z,70.93
2017-04-19T04:30:31.924Z,70.74
2017-04-19T04:31:31.953Z,70.93
2017-04-19T04:32:32.029Z,70.83
2017-04-19T04:33:32.031Z,70.83
2017-04-19T04:34:32.049Z,70.93
2017-04-19T04:35:32.079Z,70.83
2017-04-19T04:36:32.109Z,70.93
2017-04-19T04:37:32.136Z,70.64
2017-04-19T04:38:32.176Z,70.45
2017-04-19T04:39:32.198Z,70.17
2017-04-19T04:40:32.226Z,70.17
2017-04-19T04:41:32.284Z,70.17
2017-04-19T04:42:32.289Z,70.17
2017-04-19T04:43:32.317Z,70.17
2017-04-19T04:44:32.652Z,70.17
2017-04-19T04:45:32.379Z,69.98
2017-04-19T04:46:32.408Z,70.36
2017-04-19T04:47:32.438Z,70.36
2017-04-19T04:48:32.484Z,70.26
2017-04-19T04:49:32.502Z,70.55
2017-04-19T04:50:32.530Z,70.55
2017-04-19T04:51:32.559Z,70.36
2017-04-19T04:52:32.590Z,70.55
2017-04-19T04:53:32.622Z,70.45
2017-04-19T04:54:32.652Z,70.07
2017-04-19T04:55:32.682Z,69.7
2017-04-19T04:56:32.716Z,69.6
2017-04-19T04:57:32.745Z,69.79
2017-04-19T04:58:32.771Z,70.45
2017-04-19T04:59:32.803Z,70.07
2017-04-19T05:00:32.834Z,70.07
2017-04-19T05:01:33.172Z,69.7
2017-04-19T05:02:32.936Z,69.79
2017-04-19T05:03:32.930Z,69.6
2017-04-19T05:04:32.965Z,69.51
2017-04-19T05:05:32.986Z,70.01
2017-04-19T05:06:33.013Z,71.06
2017-04-19T05:07:33.045Z,71.62
2017-04-19T05:08:33.075Z,71.72
2017-04-19T05:09:33.411Z,70.58
2017-04-19T05:10:33.137Z,69.67
2017-04-19T05:11:33.167Z,69.82
2017-04-19T05:12:33.199Z,69.67
2017-04-19T05:13:33.230Z,70.43
2017-04-19T05:14:33.258Z,71.95
2017-04-19T05:15:33.292Z,72.42
2017-04-19T05:16:33.322Z,72.55
2017-04-19T05:17:33.353Z,72.88
2017-04-19T05:18:33.393Z,72.34
2017-04-19T05:19:33.415Z,70.35
2017-04-19T05:20:33.448Z,68.58
2017-04-19T05:21:33.479Z,66.58
2017-04-19T05:22:33.512Z,65.82
2017-04-19T05:23:33.543Z,65.06
2017-04-19T05:24:33.575Z,65.25
2017-04-19T05:25:33.609Z,65.31
2017-04-19T05:26:33.641Z,65.79
2017-04-19T05:27:33.674Z,65.88
2017-04-19T05:28:33.718Z,66.74
2017-04-19T05:29:33.739Z,67.06
2017-04-19T05:30:33.775Z,66.77
2017-04-19T05:31:33.810Z,67.28
2017-04-19T05:32:33.839Z,66.9
2017-04-19T05:33:33.924Z,65.99
2017-04-19T05:34:34.213Z,65.7
2017-04-19T05:35:33.946Z,66.08
2017-04-19T05:36:33.981Z,66.3
2017-04-19T05:37:34.014Z,66.14
2017-04-19T05:38:34.049Z,64.47
2017-04-19T05:39:34.086Z,63.48
2017-04-19T05:40:34.122Z,60.94
2017-04-19T05:41:34.164Z,60.21
2017-04-19T05:42:34.196Z,58.61
2017-04-19T05:43:34.234Z,57.78
2017-04-19T05:44:34.273Z,56.76
2017-04-19T05:45:34.312Z,55.74
2017-04-19T05:46:34.347Z,54.43
2017-04-19T05:47:34.386Z,53.4
2017-04-19T05:48:34.424Z,52.09
2017-04-19T05:49:34.464Z,51.79
2017-04-19T05:50:34.501Z,49.43
2017-04-19T05:51:34.545Z,49.05
2017-04-19T05:52:34.591Z,48.02
2017-04-19T05:53:34.618Z,46.22
2017-04-19T05:54:34.660Z,46.22
2017-04-19T05:55:34.815Z,45.86
2017-04-19T05:56:34.739Z,44.8
2017-04-19T05:57:34.780Z,43.38
2017-04-19T05:58:34.819Z,42.44
2017-04-19T05:59:34.861Z,41.96
2017-04-19T06:00:34.901Z,41.77
2017-04-19T06:01:34.940Z,40.35
2017-04-19T06:02:34.983Z,39.99
2017-04-19T06:03:35.021Z,39.51
2017-04-19T06:04:35.218Z,38.47
2017-04-19T06:05:35.104Z,36.83
2017-04-19T06:06:35.153Z,36.18
2017-04-19T06:07:35.186Z,36.08
2017-04-19T06:08:35.232Z,35.99
2017-04-19T06:09:35.269Z,35.91
2017-04-19T06:10:35.312Z,35.24
2017-04-19T06:11:35.352Z,34.38
2017-04-19T06:12:35.392Z,34.58
2017-04-19T06:13:35.434Z,33.25
2017-04-19T06:14:35.478Z,32.39
2017-04-19T06:15:35.535Z,30.85
2017-04-19T06:16:35.562Z,30.76
2017-04-19T06:17:35.604Z,29.79
2017-04-19T06:18:35.649Z,30.08
2017-04-19T06:19:35.688Z,29.31
2017-04-19T06:20:35.734Z,29.5
2017-04-19T06:21:35.780Z,28.44
2017-04-19T06:22:35.819Z,28.55
2017-04-19T06:23:35.865Z,27.98
2017-04-19T06:24:36.371Z,28.28
2017-04-19T06:25:35.952Z,27.23
2017-04-19T06:26:35.996Z,26.65
2017-04-19T06:27:36.034Z,26.26
2017-04-19T06:28:36.078Z,25.39
2017-04-19T06:29:36.123Z,25.29
2017-04-19T06:30:36.167Z,25.2
2017-04-19T06:31:36.209Z,24.81
2017-04-19T06:32:36.253Z,24.44
2017-04-19T06:33:36.298Z,23.86
2017-04-19T06:34:36.341Z,23.57
2017-04-19T06:35:36.383Z,23.08
2017-04-19T06:36:36.430Z,23.77
2017-04-19T06:37:36.475Z,23.77
2017-04-19T06:38:36.529Z,22.63
2017-04-19T06:39:36.560Z,22.54
2017-04-19T06:40:36.607Z,21.96
2017-04-19T06:41:36.652Z,22.25
2017-04-19T06:42:36.695Z,21.48
2017-04-19T06:43:36.750Z,20.41
2017-04-19T06:44:36.787Z,20.7
2017-04-19T06:45:36.833Z,20.31
2017-04-19T06:46:36.877Z,20.32
2017-04-19T06:47:36.921Z,20.03
2017-04-19T06:48:36.967Z,19.65
2017-04-19T06:49:37.013Z,20.14
2017-04-19T06:50:37.060Z,19.66
2017-04-19T06:51:37.100Z,19.38
2017-04-19T06:52:37.146Z,18.41
2017-04-19T06:53:37.195Z,19.09
2017-04-19T06:54:37.240Z,18.41
2017-04-19T06:55:37.287Z,18.32
2017-04-19T06:56:37.332Z,18.13
2017-04-19T06:57:37.380Z,17.46
2017-04-19T06:58:37.428Z,16.98
2017-04-19T06:59:37.471Z,16.59
2017-04-19T07:00:37.522Z,16.49
2017-04-19T07:01:37.568Z,16.59
2017-04-19T07:02:37.611Z,16.01
2017-04-19T07:03:37.660Z,15.71
2017-04-19T07:04:37.703Z,15.61
2017-04-19T07:05:37.751Z,15.81
2017-04-19T07:06:37.802Z,15.61
2017-04-19T07:07:37.844Z,15.71
2017-04-19T07:08:37.892Z,15.03
2017-04-19T07:09:37.936Z,15.22
2017-04-19T07:10:37.989Z,14.64
2017-04-19T07:11:38.050Z,15.12
2017-04-19T07:12:38.380Z,15.51
2017-04-19T07:13:38.125Z,15.31
2017-04-19T07:14:38.176Z,14.94
2017-04-19T07:15:38.220Z,14.45
2017-04-19T07:16:38.266Z,15.14
2017-04-19T07:17:38.355Z,14.36
2017-04-19T07:18:38.356Z,14.17
2017-04-19T07:19:38.408Z,14.37
2017-04-19T07:20:38.453Z,14.47
2017-04-19T07:21:38.500Z,13.3
2017-04-19T07:22:38.575Z,13.88
2017-04-19T07:23:38.596Z,14.27
2017-04-19T07:24:38.641Z,14.28
2017-04-19T07:25:38.693Z,13.21
2017-04-19T07:26:38.738Z,12.34
2017-04-19T07:27:38.786Z,13.01
2017-04-19T07:28:38.833Z,13.38
2017-04-19T07:29:38.881Z,13.47
2017-04-19T07:30:38.928Z,13.85
2017-04-19T07:31:38.974Z,13.85
2017-04-19T07:32:39.222Z,14.04
2017-04-19T07:33:39.063Z,14.23
2017-04-19T07:34:39.124Z,14.7
2017-04-19T07:35:39.158Z,14.61
2017-04-19T07:36:39.206Z,14.42
2017-04-19T07:37:39.290Z,14.14
2017-04-19T07:38:39.304Z,14.14
2017-04-19T07:39:39.344Z,13.75
2017-04-19T07:40:39.391Z,14.24
2017-04-19T07:41:39.443Z,13.37
2017-04-19T07:42:39.502Z,14.04
2017-04-19T07:43:39.541Z,13.45
2017-04-19T07:44:39.582Z,14.13
2017-04-19T07:45:39.625Z,14.03
2017-04-19T07:46:39.672Z,13.84
2017-04-19T07:47:39.721Z,13.83
2017-04-19T07:48:39.767Z,14.02
2017-04-19T07:49:39.816Z,14.3
2017-04-19T07:50:39.881Z,14.39
2017-04-19T07:51:39.903Z,14.87
2017-04-19T07:52:39.950Z,14.98
2017-04-19T07:53:40.001Z,15.08
2017-04-19T07:54:40.041Z,14.12
2017-04-19T07:55:40.089Z,14.22
2017-04-19T07:56:40.135Z,14.03
2017-04-19T07:57:40.199Z,14.32
2017-04-19T07:58:40.228Z,14.04
2017-04-19T07:59:40.276Z,13.85
2017-04-19T08:00:40.322Z,13.55
2017-04-19T08:01:40.367Z,13.25
2017-04-19T08:02:40.414Z,13.62
2017-04-19T08:03:40.459Z,14.01
2017-04-19T08:04:40.605Z,14.39
2017-04-19T08:05:40.551Z,14.86
2017-04-19T08:06:40.604Z,15.16
2017-04-19T08:07:40.638Z,14.87
2017-04-19T08:08:40.689Z,14.87
2017-04-19T08:09:40.739Z,15.17
2017-04-19T08:10:40.780Z,14.6
2017-04-19T08:11:40.828Z,13.83
2017-04-19T08:12:40.870Z,13.92
2017-04-19T08:13:40.919Z,14.22
2017-04-19T08:14:40.965Z,13.73
2017-04-19T08:15:41.027Z,14.22
2017-04-19T08:16:41.056Z,14.3
2017-04-19T08:17:41.099Z,14.49
2017-04-19T08:18:41.147Z,14.67
2017-04-19T08:19:41.193Z,14.48
2017-04-19T08:20:41.238Z,14.47
2017-04-19T08:21:41.285Z,14.86
2017-04-19T08:22:41.329Z,15.34
2017-04-19T08:23:41.374Z,15.34
2017-04-19T08:24:41.418Z,14.85
2017-04-19T08:25:41.463Z,14.55
2017-04-19T08:26:41.808Z,14.64
2017-04-19T08:27:41.548Z,15.29
2017-04-19T08:28:41.592Z,15.37
2017-04-19T08:29:41.634Z,16.42
2017-04-19T08:30:41.905Z,16.31
2017-04-19T08:31:41.718Z,17.45
2017-04-19T08:32:41.763Z,18.88
2017-04-19T08:33:41.810Z,18.98
2017-04-19T08:34:41.846Z,18.99
2017-04-19T08:35:41.887Z,18.71
2017-04-19T08:36:41.930Z,18.91
2017-04-19T08:37:41.974Z,18.63
2017-04-19T08:38:42.017Z,19.03
2017-04-19T08:39:42.059Z,18.74
2017-04-19T08:40:42.105Z,18.16
2017-04-19T08:41:42.146Z,18.73
2017-04-19T08:42:42.272Z,18.91
2017-04-19T08:43:42.261Z,19.1
2017-04-19T08:44:42.278Z,19.76
2017-04-19T08:45:42.311Z,20.14
2017-04-19T08:46:42.349Z,20.32
2017-04-19T08:47:42.396Z,20.59
2017-04-19T08:48:42.432Z,21.54
2017-04-19T08:49:42.474Z,22.3
2017-04-19T08:50:42.517Z,22.19
2017-04-19T08:51:42.555Z,22.75
2017-04-19T08:52:42.594Z,22.94
2017-04-19T08:53:42.633Z,22.94
2017-04-19T08:54:42.674Z,23.8
2017-04-19T08:55:42.715Z,24.19
2017-04-19T08:56:42.763Z,24.1
2017-04-19T08:57:42.795Z,23.44
2017-04-19T08:58:42.836Z,23.73
2017-04-19T08:59:42.879Z,23.83
2017-04-19T09:00:42.921Z,24.1
2017-04-19T09:01:42.958Z,24.19
2017-04-19T09:02:42.997Z,24.66
2017-04-19T09:03:43.337Z,24.76
2017-04-19T09:04:43.070Z,25.33
2017-04-19T09:05:43.114Z,25.32
2017-04-19T09:06:43.151Z,25.32
2017-04-19T09:07:43.190Z,25.59
2017-04-19T09:08:43.227Z,25.98
2017-04-19T09:09:43.271Z,25.88
2017-04-19T09:10:43.305Z,26.55
2017-04-19T09:11:43.346Z,26.92
2017-04-19T09:12:43.382Z,27.01
2017-04-19T09:13:43.421Z,27.11
2017-04-19T09:14:43.463Z,27.87
2017-04-19T09:15:43.499Z,27.79
2017-04-19T09:16:43.539Z,27.59
2017-04-19T09:17:43.604Z,27.97
2017-04-19T09:18:43.616Z,27.97
2017-04-19T09:19:43.653Z,27.49
2017-04-19T09:20:44.099Z,27.87
2017-04-19T09:21:43.730Z,27.97
2017-04-19T09:22:43.770Z,27.78
2017-04-19T09:23:43.810Z,27.78
2017-04-19T09:24:43.854Z,27.78
2017-04-19T09:25:43.886Z,28.06
2017-04-19T09:26:43.925Z,29.19
2017-04-19T09:27:43.960Z,29.48
2017-04-19T09:28:44.000Z,30.32
2017-04-19T09:29:44.039Z,30.23
2017-04-19T09:30:44.123Z,30.52
2017-04-19T09:31:44.125Z,30.52
2017-04-19T09:32:44.154Z,30.23
2017-04-19T09:33:44.191Z,30.61
2017-04-19T09:34:44.229Z,30.52
2017-04-19T09:35:44.265Z,30.71
2017-04-19T09:36:44.307Z,30.52
2017-04-19T09:37:44.340Z,30.61
2017-04-19T09:38:44.380Z,30.61
2017-04-19T09:39:44.426Z,30.52
2017-04-19T09:40:44.455Z,30.88
2017-04-19T09:41:44.531Z,31.07
2017-04-19T09:42:44.533Z,30.98
2017-04-19T09:43:44.570Z,31.72
2017-04-19T09:44:44.626Z,31.72
2017-04-19T09:45:44.644Z,31.8
2017-04-19T09:46:44.680Z,31.9
2017-04-19T09:47:44.718Z,32.18
2017-04-19T09:48:44.756Z,32.56
2017-04-19T09:49:45.026Z,32.07
2017-04-19T09:50:44.832Z,32.07
2017-04-19T09:51:44.863Z,32.55
2017-04-19T09:52:44.908Z,32.64
2017-04-19T09:53:44.942Z,32.93
2017-04-19T09:54:44.976Z,33.12
2017-04-19T09:55:45.015Z,32.93
2017-04-19T09:56:45.046Z,33.33
2017-04-19T09:57:45.084Z,33.51
2017-04-19T09:58:45.121Z,33.33
2017-04-19T09:59:45.157Z,33.72
2017-04-19T10:00:45.199Z,34.01
2017-04-19T10:01:45.232Z,33.91
2017-04-19T10:02:45.267Z,33.93
2017-04-19T10:03:45.307Z,33.55
2017-04-19T10:04:45.343Z,33.17
2017-04-19T10:05:45.383Z,33.17
2017-04-19T10:06:45.424Z,33.18
2017-04-19T10:07:45.457Z,32.9
2017-04-19T10:08:45.501Z,33.18
2017-04-19T10:09:45.535Z,32.79
2017-04-19T10:10:45.591Z,32.69
2017-04-19T10:11:45.608Z,32.4
2017-04-19T10:12:45.650Z,32.69
2017-04-19T10:13:45.687Z,32.69
2017-04-19T10:14:46.031Z,32.58
2017-04-19T10:15:45.761Z,32.1
2017-04-19T10:16:45.799Z,32.77
2017-04-19T10:17:46.010Z,32.39
2017-04-19T10:18:45.878Z,32.87
2017-04-19T10:19:45.926Z,32.68
2017-04-19T10:20:45.952Z,33.15
2017-04-19T10:21:45.986Z,33.06
2017-04-19T10:22:46.024Z,33.63
2017-04-19T10:23:46.062Z,32.88
2017-04-19T10:24:46.101Z,32.12
2017-04-19T10:25:46.140Z,32.12
2017-04-19T10:26:46.242Z,32.12
2017-04-19T10:27:46.226Z,32.12
2017-04-19T10:28:46.255Z,32.12
2017-04-19T10:29:46.295Z,32.29
2017-04-19T10:30:46.334Z,32.2
2017-04-19T10:31:46.369Z,32.68
2017-04-19T10:32:46.412Z,32.48
2017-04-19T10:33:46.441Z,33.14
2017-04-19T10:34:46.482Z,33.04
2017-04-19T10:35:46.518Z,32.83
2017-04-19T10:36:46.560Z,33.22
2017-04-19T10:37:46.592Z,33.97
2017-04-19T10:38:46.628Z,33.78
2017-04-19T10:39:46.667Z,34.44
2017-04-19T10:40:46.702Z,34.44
2017-04-19T10:41:46.741Z,34.63
2017-04-19T10:42:46.773Z,34.91
2017-04-19T10:43:46.813Z,35.67
2017-04-19T10:44:46.850Z,35.48
2017-04-19T10:45:46.884Z,35.48
2017-04-19T10:46:46.922Z,35
2017-04-19T10:47:46.959Z,34.72
2017-04-19T10:48:46.998Z,34.83
2017-04-19T10:49:47.039Z,34.74
2017-04-19T10:50:47.067Z,35.02
2017-04-19T10:51:47.105Z,35.02
2017-04-19T10:52:47.142Z,35.52
2017-04-19T10:53:47.180Z,35.8
2017-04-19T10:54:47.219Z,35.72
2017-04-19T10:55:47.258Z,34.67
2017-04-19T10:56:47.301Z,34.48
2017-04-19T10:57:47.331Z,34.48
2017-04-19T10:58:47.369Z,34.58
2017-04-19T10:59:47.408Z,34.87
2017-04-19T11:00:47.446Z,34.39
2017-04-19T11:01:47.488Z,34.3
2017-04-19T11:02:47.520Z,34.48
2017-04-19T11:03:47.557Z,34.39
2017-04-19T11:04:47.595Z,34.01
2017-04-19T11:05:47.635Z,33.8
2017-04-19T11:06:47.670Z,34.09
2017-04-19T11:07:47.709Z,33.9
2017-04-19T11:08:47.748Z,33.8
2017-04-19T11:09:47.782Z,33.51
2017-04-19T11:10:47.819Z,33.5
2017-04-19T11:11:47.868Z,32.93
2017-04-19T11:12:47.894Z,33.12
2017-04-19T11:13:47.932Z,33.59
2017-04-19T11:14:47.967Z,33.88
2017-04-19T11:15:48.003Z,33.69
2017-04-19T11:16:48.042Z,34.26
2017-04-19T11:17:48.075Z,34.34
2017-04-19T11:18:48.111Z,34.72
2017-04-19T11:19:48.149Z,35.58
2017-04-19T11:20:48.192Z,36.43
2017-04-19T11:21:48.225Z,36.22
2017-04-19T11:22:48.259Z,37.37
2017-04-19T11:23:48.296Z,37.46
2017-04-19T11:24:48.332Z,37.74
2017-04-19T11:25:48.369Z,38.03
2017-04-19T11:26:48.405Z,37.74
2017-04-19T11:27:48.449Z,38.22
2017-04-19T11:28:48.480Z,38.41
2017-04-19T11:29:48.515Z,38.9
2017-04-19T11:30:48.554Z,38.53
2017-04-19T11:31:48.591Z,38.71
2017-04-19T11:32:48.626Z,38.62
2017-04-19T11:33:48.661Z,38.83
2017-04-19T11:34:48.699Z,38.35
2017-04-19T11:35:48.739Z,38.07
2017-04-19T11:36:48.776Z,37.97
2017-04-19T11:37:48.810Z,37.78
2017-04-19T11:38:48.859Z,37.4
2017-04-19T11:39:48.885Z,37.78
2017-04-19T11:40:48.922Z,37.97
2017-04-19T11:41:48.961Z,37.78
2017-04-19T11:42:48.995Z,38.07
2017-04-19T11:43:49.035Z,37.97
2017-04-19T11:44:49.072Z,37.88
2017-04-19T11:45:49.111Z,37.78
2017-04-19T11:46:49.142Z,37.88
2017-04-19T11:47:49.180Z,37.69
2017-04-19T11:48:49.218Z,37.88
2017-04-19T11:49:49.477Z,37.69
2017-04-19T11:50:49.290Z,37.69
2017-04-19T11:51:49.327Z,37.88
2017-04-19T11:52:49.365Z,38.17
2017-04-19T11:53:49.400Z,38.07
2017-04-19T11:54:49.439Z,38.47
2017-04-19T11:55:49.475Z,38.37
2017-04-19T11:56:49.512Z,38.28
2017-04-19T11:57:49.549Z,38.18
2017-04-19T11:58:49.585Z,38.01
2017-04-19T11:59:49.624Z,37.54
2017-04-19T12:00:49.660Z,37.25
2017-04-19T12:01:49.700Z,37.34
2017-04-19T12:02:49.734Z,37.73
2017-04-19T12:03:49.769Z,38.75
2017-04-19T12:04:49.812Z,39.32
2017-04-19T12:05:49.842Z,39.99
2017-04-19T12:06:49.879Z,40.73
2017-04-19T12:07:49.915Z,40.45
2017-04-19T12:08:49.953Z,41.21
2017-04-19T12:09:49.989Z,41.3
2017-04-19T12:10:50.023Z,41.85
2017-04-19T12:11:50.060Z,41.95
2017-04-19T12:12:50.097Z,41.76
2017-04-19T12:13:50.130Z,42.24
2017-04-19T12:14:50.171Z,41.95
2017-04-19T12:15:50.208Z,42.24
2017-04-19T12:16:50.240Z,42.04
2017-04-19T12:17:50.274Z,42.33
2017-04-19T12:18:50.309Z,42.52
2017-04-19T12:19:50.347Z,42.52
2017-04-19T12:20:50.383Z,43.09
2017-04-19T12:21:50.416Z,42.43
2017-04-19T12:22:50.454Z,42.8
2017-04-19T12:23:50.490Z,43.11
2017-04-19T12:24:50.526Z,42.35
2017-04-19T12:25:50.562Z,42.25
2017-04-19T12:26:50.598Z,42.25
2017-04-19T12:27:50.631Z,42.44
2017-04-19T12:28:50.671Z,42.44
2017-04-19T12:29:50.707Z,41.99
2017-04-19T12:30:50.744Z,41.8
2017-04-19T12:31:50.782Z,41.71
2017-04-19T12:32:50.816Z,41.52
2017-04-19T12:33:50.851Z,41.44
2017-04-19T12:34:50.889Z,41.35
2017-04-19T12:35:50.925Z,41.44
2017-04-19T12:36:50.962Z,41.35
2017-04-19T12:37:51.000Z,41.35
2017-04-19T12:38:51.039Z,40.58
2017-04-19T12:39:51.075Z,40.2
2017-04-19T12:40:51.109Z,40.01
2017-04-19T12:41:51.149Z,40.03
2017-04-19T12:42:51.185Z,39.84
2017-04-19T12:43:51.221Z,39.84
2017-04-19T12:44:51.258Z,39.46
2017-04-19T12:45:51.295Z,39.15
2017-04-19T12:46:51.331Z,38.78
2017-04-19T12:47:51.367Z,38.96
2017-04-19T12:48:51.404Z,38.39
2017-04-19T12:49:51.443Z,38.87
2017-04-19T12:50:51.481Z,39.23
2017-04-19T12:51:51.516Z,38.66
2017-04-19T12:52:51.553Z,38.56
2017-04-19T12:53:51.589Z,39.04
2017-04-19T12:54:51.626Z,38.85